sensor_id;sensor_type;location;lat;lon;timestamp;P1;durP1;ratioP1;P2;durP2;ratioP2
7669;SDS011;3877;42.562;27.636;2023-04-25T00:02:06;23.20;;;8.37;;
7669;SDS011;3877;42.562;27.636;2023-04-25T00:04:33;22.63;;;8.67;;
7669;SDS011;3877;42.562;27.636;2023-04-25T00:07:00;21.87;;;8.20;;
7669;SDS011;3877;42.562;27.636;2023-04-25T00:09:28;21.33;;;8.40;;
7669;SDS011;3877;42.562;27.636;2023-04-25T00:11:56;18.33;;;8.17;;
7669;SDS011;3877;42.562;27.636;2023-04-25T00:14:23;15.50;;;8.57;;
7669;SDS011;3877;42.562;27.636;2023-04-25T00:16:50;24.77;;;8.23;;
7669;SDS011;3877;42.562;27.636;2023-04-25T00:19:17;16.03;;;7.87;;
7669;SDS011;3877;42.562;27.636;2023-04-25T00:21:44;18.57;;;8.13;;
7669;SDS011;3877;42.562;27.636;2023-04-25T00:24:11;18.30;;;8.00;;
7669;SDS011;3877;42.562;27.636;2023-04-25T00:26:38;15.73;;;8.53;;
7669;SDS011;3877;42.562;27.636;2023-04-25T00:29:06;13.37;;;7.77;;
7669;SDS011;3877;42.562;27.636;2023-04-25T00:31:33;20.23;;;7.87;;
7669;SDS011;3877;42.562;27.636;2023-04-25T00:34:00;15.77;;;7.50;;
7669;SDS011;3877;42.562;27.636;2023-04-25T00:36:27;14.87;;;7.30;;
7669;SDS011;3877;42.562;27.636;2023-04-25T00:38:53;11.70;;;7.40;;
7669;SDS011;3877;42.562;27.636;2023-04-25T00:41:21;16.40;;;6.90;;
7669;SDS011;3877;42.562;27.636;2023-04-25T00:43:48;12.70;;;7.23;;
7669;SDS011;3877;42.562;27.636;2023-04-25T00:46:16;17.23;;;7.50;;
7669;SDS011;3877;42.562;27.636;2023-04-25T00:48:43;13.17;;;7.40;;
7669;SDS011;3877;42.562;27.636;2023-04-25T00:51:11;14.70;;;6.93;;
7669;SDS011;3877;42.562;27.636;2023-04-25T00:53:40;17.93;;;7.50;;
7669;SDS011;3877;42.562;27.636;2023-04-25T00:56:07;16.27;;;7.20;;
7669;SDS011;3877;42.562;27.636;2023-04-25T00:58:34;12.07;;;6.83;;
7669;SDS011;3877;42.562;27.636;2023-04-25T01:01:01;12.67;;;6.87;;
7669;SDS011;3877;42.562;27.636;2023-04-25T01:03:29;15.73;;;7.20;;
7669;SDS011;3877;42.562;27.636;2023-04-25T01:05:57;15.93;;;7.30;;
7669;SDS011;3877;42.562;27.636;2023-04-25T01:08:24;18.83;;;7.23;;
7669;SDS011;3877;42.562;27.636;2023-04-25T01:10:51;19.53;;;7.63;;
7669;SDS011;3877;42.562;27.636;2023-04-25T01:13:18;20.57;;;7.03;;
7669;SDS011;3877;42.562;27.636;2023-04-25T01:15:45;18.33;;;7.43;;
7669;SDS011;3877;42.562;27.636;2023-04-25T01:18:12;22.23;;;7.03;;
7669;SDS011;3877;42.562;27.636;2023-04-25T01:20:40;12.70;;;7.63;;
7669;SDS011;3877;42.562;27.636;2023-04-25T01:23:09;18.70;;;8.23;;
7669;SDS011;3877;42.562;27.636;2023-04-25T01:25:36;17.70;;;6.90;;
7669;SDS011;3877;42.562;27.636;2023-04-25T01:28:03;23.90;;;7.30;;
7669;SDS011;3877;42.562;27.636;2023-04-25T01:30:30;16.57;;;7.27;;
7669;SDS011;3877;42.562;27.636;2023-04-25T01:32:57;14.57;;;7.27;;
7669;SDS011;3877;42.562;27.636;2023-04-25T01:35:24;24.50;;;8.87;;
7669;SDS011;3877;42.562;27.636;2023-04-25T01:37:51;15.93;;;7.77;;
7669;SDS011;3877;42.562;27.636;2023-04-25T01:40:19;24.30;;;8.60;;
7669;SDS011;3877;42.562;27.636;2023-04-25T01:42:47;21.63;;;8.63;;
7669;SDS011;3877;42.562;27.636;2023-04-25T01:45:14;23.93;;;8.50;;
7669;SDS011;3877;42.562;27.636;2023-04-25T01:47:41;26.63;;;8.80;;
7669;SDS011;3877;42.562;27.636;2023-04-25T01:50:09;19.77;;;9.00;;
7669;SDS011;3877;42.562;27.636;2023-04-25T01:52:36;18.63;;;8.60;;
7669;SDS011;3877;42.562;27.636;2023-04-25T01:55:03;14.07;;;7.97;;
7669;SDS011;3877;42.562;27.636;2023-04-25T01:57:31;20.63;;;8.77;;
7669;SDS011;3877;42.562;27.636;2023-04-25T01:59:59;22.93;;;8.47;;
7669;SDS011;3877;42.562;27.636;2023-04-25T02:02:26;24.37;;;9.33;;
7669;SDS011;3877;42.562;27.636;2023-04-25T02:04:52;21.27;;;9.13;;
7669;SDS011;3877;42.562;27.636;2023-04-25T02:07:19;26.23;;;8.80;;
7669;SDS011;3877;42.562;27.636;2023-04-25T02:09:46;27.83;;;9.57;;
7669;SDS011;3877;42.562;27.636;2023-04-25T02:12:13;23.43;;;9.40;;
7669;SDS011;3877;42.562;27.636;2023-04-25T02:14:41;31.03;;;10.00;;
7669;SDS011;3877;42.562;27.636;2023-04-25T02:17:08;22.60;;;9.47;;
7669;SDS011;3877;42.562;27.636;2023-04-25T02:19:35;28.50;;;10.40;;
7669;SDS011;3877;42.562;27.636;2023-04-25T02:22:02;27.03;;;10.40;;
7669;SDS011;3877;42.562;27.636;2023-04-25T02:24:29;21.20;;;9.83;;
7669;SDS011;3877;42.562;27.636;2023-04-25T02:26:57;20.57;;;9.70;;
7669;SDS011;3877;42.562;27.636;2023-04-25T02:29:24;26.87;;;9.43;;
7669;SDS011;3877;42.562;27.636;2023-04-25T02:31:52;25.57;;;9.03;;
7669;SDS011;3877;42.562;27.636;2023-04-25T02:34:19;17.80;;;9.17;;
7669;SDS011;3877;42.562;27.636;2023-04-25T02:36:46;23.53;;;9.97;;
7669;SDS011;3877;42.562;27.636;2023-04-25T02:39:12;19.30;;;9.10;;
7669;SDS011;3877;42.562;27.636;2023-04-25T02:41:39;23.80;;;9.67;;
7669;SDS011;3877;42.562;27.636;2023-04-25T02:44:06;23.00;;;9.93;;
7669;SDS011;3877;42.562;27.636;2023-04-25T02:46:33;20.93;;;10.00;;
7669;SDS011;3877;42.562;27.636;2023-04-25T02:49:01;21.33;;;9.37;;
7669;SDS011;3877;42.562;27.636;2023-04-25T02:51:28;23.00;;;10.13;;
7669;SDS011;3877;42.562;27.636;2023-04-25T02:53:55;26.50;;;10.53;;
7669;SDS011;3877;42.562;27.636;2023-04-25T02:56:22;26.83;;;12.63;;
7669;SDS011;3877;42.562;27.636;2023-04-25T02:58:51;35.57;;;13.00;;
7669;SDS011;3877;42.562;27.636;2023-04-25T03:01:18;33.87;;;14.00;;
7669;SDS011;3877;42.562;27.636;2023-04-25T03:03:45;28.23;;;13.80;;
7669;SDS011;3877;42.562;27.636;2023-04-25T03:06:14;36.40;;;15.13;;
7669;SDS011;3877;42.562;27.636;2023-04-25T03:08:41;35.60;;;14.07;;
7669;SDS011;3877;42.562;27.636;2023-04-25T03:11:08;38.40;;;15.40;;
7669;SDS011;3877;42.562;27.636;2023-04-25T03:13:34;32.00;;;13.53;;
7669;SDS011;3877;42.562;27.636;2023-04-25T03:16:01;24.17;;;11.97;;
7669;SDS011;3877;42.562;27.636;2023-04-25T03:18:28;28.20;;;11.80;;
7669;SDS011;3877;42.562;27.636;2023-04-25T03:20:55;38.33;;;12.87;;
7669;SDS011;3877;42.562;27.636;2023-04-25T03:23:23;26.20;;;12.33;;
7669;SDS011;3877;42.562;27.636;2023-04-25T03:25:50;27.27;;;12.10;;
7669;SDS011;3877;42.562;27.636;2023-04-25T03:28:16;26.87;;;12.47;;
7669;SDS011;3877;42.562;27.636;2023-04-25T03:30:43;26.27;;;11.80;;
7669;SDS011;3877;42.562;27.636;2023-04-25T03:33:10;23.37;;;11.87;;
7669;SDS011;3877;42.562;27.636;2023-04-25T03:35:37;21.80;;;11.03;;
7669;SDS011;3877;42.562;27.636;2023-04-25T03:38:04;28.20;;;12.23;;
7669;SDS011;3877;42.562;27.636;2023-04-25T03:40:32;26.73;;;11.27;;
7669;SDS011;3877;42.562;27.636;2023-04-25T03:42:59;28.23;;;12.87;;
7669;SDS011;3877;42.562;27.636;2023-04-25T03:45:25;26.90;;;13.00;;
7669;SDS011;3877;42.562;27.636;2023-04-25T03:47:52;33.33;;;11.80;;
7669;SDS011;3877;42.562;27.636;2023-04-25T03:50:19;28.73;;;10.40;;
7669;SDS011;3877;42.562;27.636;2023-04-25T03:52:46;25.03;;;10.13;;
7669;SDS011;3877;42.562;27.636;2023-04-25T03:55:13;19.40;;;9.80;;
7669;SDS011;3877;42.562;27.636;2023-04-25T03:57:41;18.77;;;9.03;;
7669;SDS011;3877;42.562;27.636;2023-04-25T04:00:08;19.33;;;8.77;;
7669;SDS011;3877;42.562;27.636;2023-04-25T04:02:35;24.57;;;11.23;;
7669;SDS011;3877;42.562;27.636;2023-04-25T04:05:03;30.57;;;11.27;;
7669;SDS011;3877;42.562;27.636;2023-04-25T04:07:29;31.50;;;10.80;;
7669;SDS011;3877;42.562;27.636;2023-04-25T04:09:58;27.00;;;11.53;;
7669;SDS011;3877;42.562;27.636;2023-04-25T04:12:25;29.57;;;10.53;;
7669;SDS011;3877;42.562;27.636;2023-04-25T04:14:53;25.93;;;10.27;;
7669;SDS011;3877;42.562;27.636;2023-04-25T04:17:19;27.90;;;11.10;;
7669;SDS011;3877;42.562;27.636;2023-04-25T04:19:46;26.43;;;10.50;;
7669;SDS011;3877;42.562;27.636;2023-04-25T04:22:13;35.30;;;12.17;;
7669;SDS011;3877;42.562;27.636;2023-04-25T04:24:40;26.90;;;11.00;;
7669;SDS011;3877;42.562;27.636;2023-04-25T04:27:09;24.33;;;10.30;;
7669;SDS011;3877;42.562;27.636;2023-04-25T04:29:37;27.47;;;9.53;;
7669;SDS011;3877;42.562;27.636;2023-04-25T04:32:06;24.00;;;8.43;;
7669;SDS011;3877;42.562;27.636;2023-04-25T04:34:34;17.60;;;8.20;;
7669;SDS011;3877;42.562;27.636;2023-04-25T04:37:00;18.13;;;7.83;;
7669;SDS011;3877;42.562;27.636;2023-04-25T04:39:27;17.20;;;7.20;;
7669;SDS011;3877;42.562;27.636;2023-04-25T04:41:54;21.90;;;7.75;;
7669;SDS011;3877;42.562;27.636;2023-04-25T04:44:21;21.53;;;7.47;;
7669;SDS011;3877;42.562;27.636;2023-04-25T04:46:48;19.42;;;7.57;;
7669;SDS011;3877;42.562;27.636;2023-04-25T04:49:17;25.15;;;7.20;;
7669;SDS011;3877;42.562;27.636;2023-04-25T04:51:43;20.58;;;7.50;;
7669;SDS011;3877;42.562;27.636;2023-04-25T04:54:10;22.33;;;7.28;;
7669;SDS011;3877;42.562;27.636;2023-04-25T04:56:37;19.27;;;6.82;;
7669;SDS011;3877;42.562;27.636;2023-04-25T04:59:04;20.33;;;6.93;;
7669;SDS011;3877;42.562;27.636;2023-04-25T05:01:32;16.33;;;6.67;;
7669;SDS011;3877;42.562;27.636;2023-04-25T05:04:00;21.38;;;7.25;;
7669;SDS011;3877;42.562;27.636;2023-04-25T05:06:29;19.27;;;7.18;;
7669;SDS011;3877;42.562;27.636;2023-04-25T05:08:56;20.90;;;8.15;;
7669;SDS011;3877;42.562;27.636;2023-04-25T05:11:23;15.55;;;6.93;;
7669;SDS011;3877;42.562;27.636;2023-04-25T05:13:51;18.13;;;7.60;;
7669;SDS011;3877;42.562;27.636;2023-04-25T05:16:18;15.32;;;6.78;;
7669;SDS011;3877;42.562;27.636;2023-04-25T05:18:45;18.70;;;7.00;;
7669;SDS011;3877;42.562;27.636;2023-04-25T05:21:12;20.30;;;7.20;;
7669;SDS011;3877;42.562;27.636;2023-04-25T05:23:40;17.00;;;7.28;;
7669;SDS011;3877;42.562;27.636;2023-04-25T05:26:07;13.97;;;7.00;;
7669;SDS011;3877;42.562;27.636;2023-04-25T05:28:39;14.93;;;6.90;;
7669;SDS011;3877;42.562;27.636;2023-04-25T05:31:06;21.38;;;7.57;;
7669;SDS011;3877;42.562;27.636;2023-04-25T05:33:33;20.73;;;7.18;;
7669;SDS011;3877;42.562;27.636;2023-04-25T05:36:00;16.20;;;7.38;;
7669;SDS011;3877;42.562;27.636;2023-04-25T05:38:27;17.77;;;6.97;;
7669;SDS011;3877;42.562;27.636;2023-04-25T05:40:55;12.65;;;6.88;;
7669;SDS011;3877;42.562;27.636;2023-04-25T05:43:22;13.27;;;6.47;;
7669;SDS011;3877;42.562;27.636;2023-04-25T05:45:48;17.20;;;6.88;;
7669;SDS011;3877;42.562;27.636;2023-04-25T05:48:15;17.83;;;7.63;;
7669;SDS011;3877;42.562;27.636;2023-04-25T05:50:42;14.55;;;7.38;;
7669;SDS011;3877;42.562;27.636;2023-04-25T05:53:09;14.60;;;7.18;;
7669;SDS011;3877;42.562;27.636;2023-04-25T05:55:36;18.58;;;6.97;;
7669;SDS011;3877;42.562;27.636;2023-04-25T05:58:04;19.90;;;7.40;;
7669;SDS011;3877;42.562;27.636;2023-04-25T06:00:32;17.37;;;7.20;;
7669;SDS011;3877;42.562;27.636;2023-04-25T06:02:59;15.70;;;7.20;;
7669;SDS011;3877;42.562;27.636;2023-04-25T06:05:26;17.80;;;7.87;;
7669;SDS011;3877;42.562;27.636;2023-04-25T06:07:53;18.50;;;8.05;;
7669;SDS011;3877;42.562;27.636;2023-04-25T06:10:20;16.20;;;7.37;;
7669;SDS011;3877;42.562;27.636;2023-04-25T06:12:47;17.77;;;8.07;;
7669;SDS011;3877;42.562;27.636;2023-04-25T06:15:15;13.27;;;7.78;;
7669;SDS011;3877;42.562;27.636;2023-04-25T06:17:42;18.95;;;7.93;;
7669;SDS011;3877;42.562;27.636;2023-04-25T06:20:09;16.42;;;7.70;;
7669;SDS011;3877;42.562;27.636;2023-04-25T06:22:36;19.52;;;7.13;;
7669;SDS011;3877;42.562;27.636;2023-04-25T06:25:03;16.40;;;7.32;;
7669;SDS011;3877;42.562;27.636;2023-04-25T06:27:32;17.70;;;6.40;;
7669;SDS011;3877;42.562;27.636;2023-04-25T06:29:59;18.20;;;6.82;;
7669;SDS011;3877;42.562;27.636;2023-04-25T06:32:27;34.65;;;7.00;;
7669;SDS011;3877;42.562;27.636;2023-04-25T06:34:55;11.75;;;5.97;;
7669;SDS011;3877;42.562;27.636;2023-04-25T06:37:22;17.15;;;6.50;;
7669;SDS011;3877;42.562;27.636;2023-04-25T06:39:48;17.08;;;6.55;;
7669;SDS011;3877;42.562;27.636;2023-04-25T06:42:15;15.68;;;6.60;;
7669;SDS011;3877;42.562;27.636;2023-04-25T06:44:42;19.13;;;6.30;;
7669;SDS011;3877;42.562;27.636;2023-04-25T06:47:09;12.60;;;6.45;;
7669;SDS011;3877;42.562;27.636;2023-04-25T06:49:38;21.27;;;6.20;;
7669;SDS011;3877;42.562;27.636;2023-04-25T06:52:05;17.40;;;6.85;;
7669;SDS011;3877;42.562;27.636;2023-04-25T06:54:32;15.90;;;5.72;;
7669;SDS011;3877;42.562;27.636;2023-04-25T06:56:58;28.38;;;7.03;;
7669;SDS011;3877;42.562;27.636;2023-04-25T06:59:26;16.73;;;6.55;;
7669;SDS011;3877;42.562;27.636;2023-04-25T07:01:52;16.25;;;6.82;;
7669;SDS011;3877;42.562;27.636;2023-04-25T07:04:19;12.20;;;6.68;;
7669;SDS011;3877;42.562;27.636;2023-04-25T07:06:48;15.20;;;6.57;;
7669;SDS011;3877;42.562;27.636;2023-04-25T07:09:14;16.15;;;6.80;;
7669;SDS011;3877;42.562;27.636;2023-04-25T07:11:42;13.23;;;6.90;;
7669;SDS011;3877;42.562;27.636;2023-04-25T07:14:08;15.32;;;7.03;;
7669;SDS011;3877;42.562;27.636;2023-04-25T07:16:35;18.02;;;7.25;;
7669;SDS011;3877;42.562;27.636;2023-04-25T07:19:02;18.17;;;7.57;;
7669;SDS011;3877;42.562;27.636;2023-04-25T07:21:29;23.35;;;7.82;;
7669;SDS011;3877;42.562;27.636;2023-04-25T07:23:57;22.27;;;6.97;;
7669;SDS011;3877;42.562;27.636;2023-04-25T07:26:24;25.00;;;8.20;;
7669;SDS011;3877;42.562;27.636;2023-04-25T07:28:51;20.15;;;8.52;;
7669;SDS011;3877;42.562;27.636;2023-04-25T07:31:17;18.57;;;8.60;;
7669;SDS011;3877;42.562;27.636;2023-04-25T07:33:44;12.60;;;7.65;;
7669;SDS011;3877;42.562;27.636;2023-04-25T07:36:11;19.90;;;8.13;;
7669;SDS011;3877;42.562;27.636;2023-04-25T07:38:40;18.85;;;8.60;;
7669;SDS011;3877;42.562;27.636;2023-04-25T07:41:08;32.80;;;10.40;;
7669;SDS011;3877;42.562;27.636;2023-04-25T07:43:35;20.65;;;8.82;;
7669;SDS011;3877;42.562;27.636;2023-04-25T07:46:02;20.17;;;8.77;;
7669;SDS011;3877;42.562;27.636;2023-04-25T07:48:30;17.08;;;9.05;;
7669;SDS011;3877;42.562;27.636;2023-04-25T07:50:56;24.20;;;9.20;;
7669;SDS011;3877;42.562;27.636;2023-04-25T07:53:23;19.48;;;9.00;;
7669;SDS011;3877;42.562;27.636;2023-04-25T07:55:50;19.98;;;8.15;;
7669;SDS011;3877;42.562;27.636;2023-04-25T07:58:18;22.42;;;8.23;;
7669;SDS011;3877;42.562;27.636;2023-04-25T08:00:47;18.57;;;7.87;;
7669;SDS011;3877;42.562;27.636;2023-04-25T08:03:13;19.60;;;8.13;;
7669;SDS011;3877;42.562;27.636;2023-04-25T08:05:40;21.30;;;7.60;;
7669;SDS011;3877;42.562;27.636;2023-04-25T08:08:07;17.47;;;8.03;;
7669;SDS011;3877;42.562;27.636;2023-04-25T08:10:35;19.08;;;7.75;;
7669;SDS011;3877;42.562;27.636;2023-04-25T08:13:02;19.02;;;7.80;;
7669;SDS011;3877;42.562;27.636;2023-04-25T08:15:30;17.02;;;7.60;;
7669;SDS011;3877;42.562;27.636;2023-04-25T08:17:57;16.23;;;7.85;;
7669;SDS011;3877;42.562;27.636;2023-04-25T08:20:24;18.00;;;7.90;;
7669;SDS011;3877;42.562;27.636;2023-04-25T08:22:51;25.20;;;8.13;;
7669;SDS011;3877;42.562;27.636;2023-04-25T08:25:18;21.20;;;8.13;;
7669;SDS011;3877;42.562;27.636;2023-04-25T08:27:45;29.90;;;9.48;;
7669;SDS011;3877;42.562;27.636;2023-04-25T08:30:12;16.63;;;8.20;;
7669;SDS011;3877;42.562;27.636;2023-04-25T08:32:40;25.87;;;8.43;;
7669;SDS011;3877;42.562;27.636;2023-04-25T08:35:07;18.45;;;8.10;;
7669;SDS011;3877;42.562;27.636;2023-04-25T08:37:34;21.60;;;9.57;;
7669;SDS011;3877;42.562;27.636;2023-04-25T08:40:01;20.42;;;9.25;;
7669;SDS011;3877;42.562;27.636;2023-04-25T08:42:32;20.75;;;9.52;;
7669;SDS011;3877;42.562;27.636;2023-04-25T08:45:00;18.80;;;9.50;;
7669;SDS011;3877;42.562;27.636;2023-04-25T08:47:28;19.50;;;9.73;;
7669;SDS011;3877;42.562;27.636;2023-04-25T08:49:57;19.97;;;10.60;;
7669;SDS011;3877;42.562;27.636;2023-04-25T08:52:25;26.85;;;10.13;;
7669;SDS011;3877;42.562;27.636;2023-04-25T08:54:54;17.88;;;12.45;;
7669;SDS011;3877;42.562;27.636;2023-04-25T08:57:21;25.15;;;16.25;;
7669;SDS011;3877;42.562;27.636;2023-04-25T08:59:49;20.17;;;11.30;;
7669;SDS011;3877;42.562;27.636;2023-04-25T09:02:16;22.85;;;10.18;;
7669;SDS011;3877;42.562;27.636;2023-04-25T09:04:45;29.83;;;10.10;;
7669;SDS011;3877;42.562;27.636;2023-04-25T09:07:14;15.38;;;7.65;;
7669;SDS011;3877;42.562;27.636;2023-04-25T09:09:43;17.38;;;9.05;;
7669;SDS011;3877;42.562;27.636;2023-04-25T09:12:11;19.00;;;8.68;;
7669;SDS011;3877;42.562;27.636;2023-04-25T09:14:38;19.75;;;8.63;;
7669;SDS011;3877;42.562;27.636;2023-04-25T09:17:05;14.80;;;8.93;;
7669;SDS011;3877;42.562;27.636;2023-04-25T09:19:33;24.50;;;10.13;;
7669;SDS011;3877;42.562;27.636;2023-04-25T09:22:01;18.00;;;8.93;;
7669;SDS011;3877;42.562;27.636;2023-04-25T09:24:31;20.05;;;9.68;;
7669;SDS011;3877;42.562;27.636;2023-04-25T09:26:58;22.92;;;9.10;;
7669;SDS011;3877;42.562;27.636;2023-04-25T09:29:29;17.70;;;9.48;;
7669;SDS011;3877;42.562;27.636;2023-04-25T09:32:10;15.57;;;8.52;;
7669;SDS011;3877;42.562;27.636;2023-04-25T09:34:41;15.07;;;8.73;;
7669;SDS011;3877;42.562;27.636;2023-04-25T09:37:08;16.27;;;8.38;;
7669;SDS011;3877;42.562;27.636;2023-04-25T09:39:37;17.93;;;7.80;;
7669;SDS011;3877;42.562;27.636;2023-04-25T09:42:04;16.48;;;7.15;;
7669;SDS011;3877;42.562;27.636;2023-04-25T09:44:31;18.08;;;7.82;;
7669;SDS011;3877;42.562;27.636;2023-04-25T09:46:58;13.57;;;8.23;;
7669;SDS011;3877;42.562;27.636;2023-04-25T09:49:25;17.75;;;8.50;;
7669;SDS011;3877;42.562;27.636;2023-04-25T09:51:55;17.33;;;8.02;;
7669;SDS011;3877;42.562;27.636;2023-04-25T09:54:23;17.13;;;8.10;;
7669;SDS011;3877;42.562;27.636;2023-04-25T09:56:53;17.65;;;8.10;;
7669;SDS011;3877;42.562;27.636;2023-04-25T09:59:20;15.40;;;8.45;;
7669;SDS011;3877;42.562;27.636;2023-04-25T10:01:47;18.38;;;8.52;;
7669;SDS011;3877;42.562;27.636;2023-04-25T10:04:15;22.75;;;9.80;;
7669;SDS011;3877;42.562;27.636;2023-04-25T10:06:43;17.83;;;8.75;;
7669;SDS011;3877;42.562;27.636;2023-04-25T10:09:10;19.05;;;8.98;;
7669;SDS011;3877;42.562;27.636;2023-04-25T10:11:38;17.13;;;9.45;;
7669;SDS011;3877;42.562;27.636;2023-04-25T10:14:07;19.40;;;8.90;;
7669;SDS011;3877;42.562;27.636;2023-04-25T10:16:34;14.10;;;8.50;;
7669;SDS011;3877;42.562;27.636;2023-04-25T10:19:02;13.48;;;8.38;;
7669;SDS011;3877;42.562;27.636;2023-04-25T10:21:29;14.63;;;8.40;;
7669;SDS011;3877;42.562;27.636;2023-04-25T10:23:58;15.77;;;7.95;;
7669;SDS011;3877;42.562;27.636;2023-04-25T10:26:25;15.60;;;7.65;;
7669;SDS011;3877;42.562;27.636;2023-04-25T10:28:55;14.82;;;6.97;;
7669;SDS011;3877;42.562;27.636;2023-04-25T10:31:23;10.00;;;6.90;;
7669;SDS011;3877;42.562;27.636;2023-04-25T10:33:50;9.70;;;6.95;;
7669;SDS011;3877;42.562;27.636;2023-04-25T10:36:17;12.73;;;7.53;;
7669;SDS011;3877;42.562;27.636;2023-04-25T10:38:45;17.80;;;7.47;;
7669;SDS011;3877;42.562;27.636;2023-04-25T10:41:12;14.95;;;7.78;;
7669;SDS011;3877;42.562;27.636;2023-04-25T10:43:39;13.57;;;7.10;;
7669;SDS011;3877;42.562;27.636;2023-04-25T10:46:13;17.77;;;6.97;;
7669;SDS011;3877;42.562;27.636;2023-04-25T10:48:45;15.70;;;6.82;;
7669;SDS011;3877;42.562;27.636;2023-04-25T10:51:15;13.15;;;6.70;;
7669;SDS011;3877;42.562;27.636;2023-04-25T10:53:43;12.17;;;6.30;;
7669;SDS011;3877;42.562;27.636;2023-04-25T10:56:10;14.52;;;6.40;;
7669;SDS011;3877;42.562;27.636;2023-04-25T10:58:41;11.80;;;6.32;;
7669;SDS011;3877;42.562;27.636;2023-04-25T11:01:08;7.60;;;5.47;;
7669;SDS011;3877;42.562;27.636;2023-04-25T11:03:38;12.60;;;5.68;;
7669;SDS011;3877;42.562;27.636;2023-04-25T11:06:06;16.98;;;5.20;;
7669;SDS011;3877;42.562;27.636;2023-04-25T11:08:48;15.50;;;5.03;;
7669;SDS011;3877;42.562;27.636;2023-04-25T11:11:15;8.55;;;4.35;;
7669;SDS011;3877;42.562;27.636;2023-04-25T11:13:42;12.15;;;4.78;;
7669;SDS011;3877;42.562;27.636;2023-04-25T11:16:10;11.43;;;4.63;;
7669;SDS011;3877;42.562;27.636;2023-04-25T11:18:36;10.38;;;5.00;;
7669;SDS011;3877;42.562;27.636;2023-04-25T11:21:04;9.15;;;5.10;;
7669;SDS011;3877;42.562;27.636;2023-04-25T11:23:32;8.27;;;4.60;;
7669;SDS011;3877;42.562;27.636;2023-04-25T11:25:59;8.70;;;4.57;;
7669;SDS011;3877;42.562;27.636;2023-04-25T11:28:27;8.60;;;4.07;;
7669;SDS011;3877;42.562;27.636;2023-04-25T11:30:53;8.65;;;4.35;;
7669;SDS011;3877;42.562;27.636;2023-04-25T11:33:22;7.35;;;3.97;;
7669;SDS011;3877;42.562;27.636;2023-04-25T11:35:49;5.50;;;3.75;;
7669;SDS011;3877;42.562;27.636;2023-04-25T11:38:16;6.90;;;3.80;;
7669;SDS011;3877;42.562;27.636;2023-04-25T11:40:44;6.70;;;4.40;;
7669;SDS011;3877;42.562;27.636;2023-04-25T11:43:15;8.00;;;4.03;;
7669;SDS011;3877;42.562;27.636;2023-04-25T11:45:45;10.35;;;4.75;;
7669;SDS011;3877;42.562;27.636;2023-04-25T11:48:12;7.13;;;4.93;;
7669;SDS011;3877;42.562;27.636;2023-04-25T11:50:39;10.88;;;5.07;;
7669;SDS011;3877;42.562;27.636;2023-04-25T11:53:06;8.95;;;4.97;;
7669;SDS011;3877;42.562;27.636;2023-04-25T11:55:33;8.53;;;5.00;;
7669;SDS011;3877;42.562;27.636;2023-04-25T11:58:03;7.40;;;5.25;;
7669;SDS011;3877;42.562;27.636;2023-04-25T12:00:30;8.82;;;5.00;;
7669;SDS011;3877;42.562;27.636;2023-04-25T12:02:57;8.85;;;5.13;;
7669;SDS011;3877;42.562;27.636;2023-04-25T12:05:25;8.50;;;5.50;;
7669;SDS011;3877;42.562;27.636;2023-04-25T12:07:52;13.57;;;6.20;;
7669;SDS011;3877;42.562;27.636;2023-04-25T12:10:19;8.75;;;5.30;;
7669;SDS011;3877;42.562;27.636;2023-04-25T12:12:47;6.47;;;5.32;;
7669;SDS011;3877;42.562;27.636;2023-04-25T12:15:16;10.90;;;6.38;;
7669;SDS011;3877;42.562;27.636;2023-04-25T12:17:44;13.40;;;6.27;;
7669;SDS011;3877;42.562;27.636;2023-04-25T12:20:13;13.18;;;6.38;;
7669;SDS011;3877;42.562;27.636;2023-04-25T12:22:40;15.27;;;7.32;;
7669;SDS011;3877;42.562;27.636;2023-04-25T12:25:10;8.95;;;7.43;;
7669;SDS011;3877;42.562;27.636;2023-04-25T12:27:38;14.68;;;8.20;;
7669;SDS011;3877;42.562;27.636;2023-04-25T12:30:07;21.05;;;9.20;;
7669;SDS011;3877;42.562;27.636;2023-04-25T12:32:37;27.33;;;11.70;;
7669;SDS011;3877;42.562;27.636;2023-04-25T12:35:04;35.27;;;11.07;;
7669;SDS011;3877;42.562;27.636;2023-04-25T12:37:31;31.23;;;12.87;;
7669;SDS011;3877;42.562;27.636;2023-04-25T12:39:58;40.47;;;13.93;;
7669;SDS011;3877;42.562;27.636;2023-04-25T12:42:25;28.33;;;12.67;;
7669;SDS011;3877;42.562;27.636;2023-04-25T12:44:51;36.30;;;14.10;;
7669;SDS011;3877;42.562;27.636;2023-04-25T12:47:18;34.80;;;12.32;;
7669;SDS011;3877;42.562;27.636;2023-04-25T12:49:46;27.57;;;12.80;;
7669;SDS011;3877;42.562;27.636;2023-04-25T12:52:13;27.20;;;12.37;;
7669;SDS011;3877;42.562;27.636;2023-04-25T12:54:40;20.80;;;11.40;;
7669;SDS011;3877;42.562;27.636;2023-04-25T12:57:07;22.38;;;11.98;;
7669;SDS011;3877;42.562;27.636;2023-04-25T12:59:34;19.98;;;11.10;;
7669;SDS011;3877;42.562;27.636;2023-04-25T13:02:01;15.30;;;10.05;;
7669;SDS011;3877;42.562;27.636;2023-04-25T13:04:28;20.63;;;10.23;;
7669;SDS011;3877;42.562;27.636;2023-04-25T13:06:56;15.02;;;9.68;;
7669;SDS011;3877;42.562;27.636;2023-04-25T13:09:23;19.02;;;9.63;;
7669;SDS011;3877;42.562;27.636;2023-04-25T13:11:50;21.52;;;10.32;;
7669;SDS011;3877;42.562;27.636;2023-04-25T13:14:16;23.35;;;11.10;;
7669;SDS011;3877;42.562;27.636;2023-04-25T13:16:43;19.10;;;10.70;;
7669;SDS011;3877;42.562;27.636;2023-04-25T13:19:11;18.00;;;9.47;;
7669;SDS011;3877;42.562;27.636;2023-04-25T13:21:37;18.30;;;10.10;;
7669;SDS011;3877;42.562;27.636;2023-04-25T13:24:06;17.87;;;10.30;;
7669;SDS011;3877;42.562;27.636;2023-04-25T13:26:33;31.47;;;11.07;;
7669;SDS011;3877;42.562;27.636;2023-04-25T13:29:00;31.33;;;12.00;;
7669;SDS011;3877;42.562;27.636;2023-04-25T13:31:28;25.30;;;13.47;;
7669;SDS011;3877;42.562;27.636;2023-04-25T13:33:55;30.87;;;10.60;;
7669;SDS011;3877;42.562;27.636;2023-04-25T13:36:22;24.25;;;9.70;;
7669;SDS011;3877;42.562;27.636;2023-04-25T13:38:49;29.27;;;10.25;;
7669;SDS011;3877;42.562;27.636;2023-04-25T13:41:17;24.20;;;8.88;;
7669;SDS011;3877;42.562;27.636;2023-04-25T13:43:44;18.37;;;7.97;;
7669;SDS011;3877;42.562;27.636;2023-04-25T13:46:12;13.75;;;6.93;;
7669;SDS011;3877;42.562;27.636;2023-04-25T13:48:40;15.03;;;6.23;;
7669;SDS011;3877;42.562;27.636;2023-04-25T13:51:12;21.85;;;7.25;;
7669;SDS011;3877;42.562;27.636;2023-04-25T13:53:39;17.95;;;6.68;;
7669;SDS011;3877;42.562;27.636;2023-04-25T13:56:06;17.23;;;5.95;;
7669;SDS011;3877;42.562;27.636;2023-04-25T13:58:34;12.68;;;5.13;;
7669;SDS011;3877;42.562;27.636;2023-04-25T14:01:01;22.73;;;6.10;;
7669;SDS011;3877;42.562;27.636;2023-04-25T14:03:28;13.15;;;5.50;;
7669;SDS011;3877;42.562;27.636;2023-04-25T14:05:55;17.67;;;5.85;;
7669;SDS011;3877;42.562;27.636;2023-04-25T14:08:22;16.52;;;5.45;;
7669;SDS011;3877;42.562;27.636;2023-04-25T14:10:49;33.50;;;6.65;;
7669;SDS011;3877;42.562;27.636;2023-04-25T14:13:15;26.73;;;6.00;;
7669;SDS011;3877;42.562;27.636;2023-04-25T14:15:43;15.48;;;4.70;;
7669;SDS011;3877;42.562;27.636;2023-04-25T14:18:10;22.00;;;5.10;;
7669;SDS011;3877;42.562;27.636;2023-04-25T14:20:37;14.38;;;4.18;;
7669;SDS011;3877;42.562;27.636;2023-04-25T14:23:04;10.50;;;3.53;;
7669;SDS011;3877;42.562;27.636;2023-04-25T14:25:31;23.48;;;4.70;;
7669;SDS011;3877;42.562;27.636;2023-04-25T14:27:58;11.07;;;3.80;;
7669;SDS011;3877;42.562;27.636;2023-04-25T14:30:25;20.90;;;3.97;;
7669;SDS011;3877;42.562;27.636;2023-04-25T14:32:53;21.63;;;4.43;;
7669;SDS011;3877;42.562;27.636;2023-04-25T14:35:20;23.40;;;4.45;;
7669;SDS011;3877;42.562;27.636;2023-04-25T14:37:46;16.75;;;4.72;;
7669;SDS011;3877;42.562;27.636;2023-04-25T14:40:13;21.25;;;5.60;;
7669;SDS011;3877;42.562;27.636;2023-04-25T14:42:42;23.83;;;5.32;;
7669;SDS011;3877;42.562;27.636;2023-04-25T14:45:09;27.85;;;7.90;;
7669;SDS011;3877;42.562;27.636;2023-04-25T14:47:36;18.45;;;5.50;;